sensor_id;sensor_type;location;lat;lon;timestamp;temperature;humidity
13458;DHT22;6801;53.018;11.560;2023-11-22T00:01:18;5.00;82.10
13458;DHT22;6801;53.018;11.560;2023-11-22T00:03:45;5.00;82.10
13458;DHT22;6801;53.018;11.560;2023-11-22T00:06:14;4.90;82.00
13458;DHT22;6801;53.018;11.560;2023-11-22T00:08:41;4.90;82.00
13458;DHT22;6801;53.018;11.560;2023-11-22T00:11:08;4.90;81.80
13458;DHT22;6801;53.018;11.560;2023-11-22T00:13:35;4.90;81.60
13458;DHT22;6801;53.018;11.560;2023-11-22T00:16:02;4.90;81.80
13458;DHT22;6801;53.018;11.560;2023-11-22T00:18:30;4.90;81.70
13458;DHT22;6801;53.018;11.560;2023-11-22T00:20:57;4.90;81.60
13458;DHT22;6801;53.018;11.560;2023-11-22T00:23:26;4.80;81.50
13458;DHT22;6801;53.018;11.560;2023-11-22T00:25:55;4.80;81.50
13458;DHT22;6801;53.018;11.560;2023-11-22T00:28:23;4.80;81.70
13458;DHT22;6801;53.018;11.560;2023-11-22T00:30:50;4.80;82.00
13458;DHT22;6801;53.018;11.560;2023-11-22T00:33:19;4.80;82.20
13458;DHT22;6801;53.018;11.560;2023-11-22T00:35:46;4.90;82.30
13458;DHT22;6801;53.018;11.560;2023-11-22T00:38:13;4.80;82.10
13458;DHT22;6801;53.018;11.560;2023-11-22T00:40:41;4.80;81.90
13458;DHT22;6801;53.018;11.560;2023-11-22T00:43:08;4.70;81.80
13458;DHT22;6801;53.018;11.560;2023-11-22T00:45:36;4.70;82.00
13458;DHT22;6801;53.018;11.560;2023-11-22T00:48:04;4.70;82.00
13458;DHT22;6801;53.018;11.560;2023-11-22T00:50:31;4.70;82.00
13458;DHT22;6801;53.018;11.560;2023-11-22T00:52:58;4.70;82.00
13458;DHT22;6801;53.018;11.560;2023-11-22T00:55:25;4.70;81.90
13458;DHT22;6801;53.018;11.560;2023-11-22T00:57:54;4.70;81.80
13458;DHT22;6801;53.018;11.560;2023-11-22T01:00:22;4.60;81.60
13458;DHT22;6801;53.018;11.560;2023-11-22T01:02:49;4.60;81.60
13458;DHT22;6801;53.018;11.560;2023-11-22T01:05:16;4.60;81.70
13458;DHT22;6801;53.018;11.560;2023-11-22T01:07:43;4.50;81.90
13458;DHT22;6801;53.018;11.560;2023-11-22T01:10:10;4.60;81.90
13458;DHT22;6801;53.018;11.560;2023-11-22T01:12:37;4.50;81.80
13458;DHT22;6801;53.018;11.560;2023-11-22T01:15:07;4.50;81.80
13458;DHT22;6801;53.018;11.560;2023-11-22T01:17:35;4.50;81.80
13458;DHT22;6801;53.018;11.560;2023-11-22T01:20:02;4.50;81.60
13458;DHT22;6801;53.018;11.560;2023-11-22T01:22:30;4.40;81.50
13458;DHT22;6801;53.018;11.560;2023-11-22T01:24:58;4.30;81.10
13458;DHT22;6801;53.018;11.560;2023-11-22T01:27:26;4.30;81.00
13458;DHT22;6801;53.018;11.560;2023-11-22T01:29:54;4.20;81.00
13458;DHT22;6801;53.018;11.560;2023-11-22T01:32:22;4.10;80.90
13458;DHT22;6801;53.018;11.560;2023-11-22T01:34:49;4.10;80.80
13458;DHT22;6801;53.018;11.560;2023-11-22T01:37:16;4.10;81.00
13458;DHT22;6801;53.018;11.560;2023-11-22T01:39:43;4.10;81.30
13458;DHT22;6801;53.018;11.560;2023-11-22T01:42:10;4.10;81.40
13458;DHT22;6801;53.018;11.560;2023-11-22T01:44:37;4.10;81.40
13458;DHT22;6801;53.018;11.560;2023-11-22T01:47:05;4.00;81.30
13458;DHT22;6801;53.018;11.560;2023-11-22T01:49:33;4.00;81.20
13458;DHT22;6801;53.018;11.560;2023-11-22T01:52:03;4.00;81.40
13458;DHT22;6801;53.018;11.560;2023-11-22T01:54:31;4.00;81.40
13458;DHT22;6801;53.018;11.560;2023-11-22T01:56:59;4.00;81.50
13458;DHT22;6801;53.018;11.560;2023-11-22T01:59:27;4.00;81.40
13458;DHT22;6801;53.018;11.560;2023-11-22T02:01:57;3.90;81.40
13458;DHT22;6801;53.018;11.560;2023-11-22T02:04:24;3.90;81.50
13458;DHT22;6801;53.018;11.560;2023-11-22T02:06:53;3.90;81.50
13458;DHT22;6801;53.018;11.560;2023-11-22T02:09:20;3.90;81.70
13458;DHT22;6801;53.018;11.560;2023-11-22T02:11:48;3.80;81.50
13458;DHT22;6801;53.018;11.560;2023-11-22T02:14:15;3.80;81.60
13458;DHT22;6801;53.018;11.560;2023-11-22T02:16:42;3.80;81.80
13458;DHT22;6801;53.018;11.560;2023-11-22T02:19:14;3.80;81.80
13458;DHT22;6801;53.018;11.560;2023-11-22T02:21:42;3.80;81.80
13458;DHT22;6801;53.018;11.560;2023-11-22T02:24:10;3.80;81.70
13458;DHT22;6801;53.018;11.560;2023-11-22T02:26:37;3.80;81.80
13458;DHT22;6801;53.018;11.560;2023-11-22T02:29:04;3.80;81.80
13458;DHT22;6801;53.018;11.560;2023-11-22T02:31:32;3.80;81.80
13458;DHT22;6801;53.018;11.560;2023-11-22T02:34:00;3.70;81.80
13458;DHT22;6801;53.018;11.560;2023-11-22T02:36:27;3.80;81.80
13458;DHT22;6801;53.018;11.560;2023-11-22T02:38:54;3.80;81.80
13458;DHT22;6801;53.018;11.560;2023-11-22T02:41:23;3.70;81.70
13458;DHT22;6801;53.018;11.560;2023-11-22T02:43:51;3.80;81.80
13458;DHT22;6801;53.018;11.560;2023-11-22T02:46:17;3.80;81.90
13458;DHT22;6801;53.018;11.560;2023-11-22T02:48:44;3.80;81.90
13458;DHT22;6801;53.018;11.560;2023-11-22T02:51:11;3.80;81.90
13458;DHT22;6801;53.018;11.560;2023-11-22T02:53:39;3.80;81.80
13458;DHT22;6801;53.018;11.560;2023-11-22T02:56:09;3.70;81.80
13458;DHT22;6801;53.018;11.560;2023-11-22T02:58:37;3.70;81.80
13458;DHT22;6801;53.018;11.560;2023-11-22T03:01:04;3.70;81.90
13458;DHT22;6801;53.018;11.560;2023-11-22T03:03:33;3.70;81.80
13458;DHT22;6801;53.018;11.560;2023-11-22T03:06:00;3.70;81.90
13458;DHT22;6801;53.018;11.560;2023-11-22T03:08:27;3.70;81.80
13458;DHT22;6801;53.018;11.560;2023-11-22T03:11:00;3.70;81.80
13458;DHT22;6801;53.018;11.560;2023-11-22T03:13:28;3.70;81.90
13458;DHT22;6801;53.018;11.560;2023-11-22T03:15:57;3.60;81.80
13458;DHT22;6801;53.018;11.560;2023-11-22T03:18:24;3.60;81.80
13458;DHT22;6801;53.018;11.560;2023-11-22T03:20:51;3.60;81.80
13458;DHT22;6801;53.018;11.560;2023-11-22T03:23:20;3.50;81.70
13458;DHT22;6801;53.018;11.560;2023-11-22T03:25:48;3.50;81.70
13458;DHT22;6801;53.018;11.560;2023-11-22T03:28:15;3.50;81.70
13458;DHT22;6801;53.018;11.560;2023-11-22T03:30:42;3.50;81.80
13458;DHT22;6801;53.018;11.560;2023-11-22T03:33:10;3.50;81.70
13458;DHT22;6801;53.018;11.560;2023-11-22T03:35:37;3.50;81.70
13458;DHT22;6801;53.018;11.560;2023-11-22T03:38:05;3.50;81.70
13458;DHT22;6801;53.018;11.560;2023-11-22T03:40:33;3.40;81.80
13458;DHT22;6801;53.018;11.560;2023-11-22T03:43:00;3.40;81.80
13458;DHT22;6801;53.018;11.560;2023-11-22T03:45:27;3.40;81.80
13458;DHT22;6801;53.018;11.560;2023-11-22T03:47:54;3.40;81.90
13458;DHT22;6801;53.018;11.560;2023-11-22T03:50:22;3.40;82.00
13458;DHT22;6801;53.018;11.560;2023-11-22T03:52:49;3.30;82.10
13458;DHT22;6801;53.018;11.560;2023-11-22T03:55:16;3.30;82.10
13458;DHT22;6801;53.018;11.560;2023-11-22T03:57:43;3.30;82.10
13458;DHT22;6801;53.018;11.560;2023-11-22T04:00:11;3.30;81.90
13458;DHT22;6801;53.018;11.560;2023-11-22T04:02:40;3.30;81.90
13458;DHT22;6801;53.018;11.560;2023-11-22T04:05:08;3.30;82.00
13458;DHT22;6801;53.018;11.560;2023-11-22T04:07:38;3.30;82.10
13458;DHT22;6801;53.018;11.560;2023-11-22T04:10:05;3.20;82.10
13458;DHT22;6801;53.018;11.560;2023-11-22T04:12:32;3.20;82.10
13458;DHT22;6801;53.018;11.560;2023-11-22T04:15:00;3.20;82.10
13458;DHT22;6801;53.018;11.560;2023-11-22T04:17:27;3.20;82.00
13458;DHT22;6801;53.018;11.560;2023-11-22T04:19:54;3.10;82.00
13458;DHT22;6801;53.018;11.560;2023-11-22T04:22:21;3.10;82.10
13458;DHT22;6801;53.018;11.560;2023-11-22T04:24:49;3.10;82.10
13458;DHT22;6801;53.018;11.560;2023-11-22T04:27:16;3.10;82.10
13458;DHT22;6801;53.018;11.560;2023-11-22T04:29:43;3.00;82.00
13458;DHT22;6801;53.018;11.560;2023-11-22T04:32:10;3.00;82.10
13458;DHT22;6801;53.018;11.560;2023-11-22T04:34:37;3.00;82.00
13458;DHT22;6801;53.018;11.560;2023-11-22T04:37:04;3.00;82.00
13458;DHT22;6801;53.018;11.560;2023-11-22T04:39:32;3.00;82.00
13458;DHT22;6801;53.018;11.560;2023-11-22T04:42:01;3.00;82.10
13458;DHT22;6801;53.018;11.560;2023-11-22T04:44:28;3.00;82.10
13458;DHT22;6801;53.018;11.560;2023-11-22T04:46:54;3.00;82.00
13458;DHT22;6801;53.018;11.560;2023-11-22T04:49:21;2.90;82.00
13458;DHT22;6801;53.018;11.560;2023-11-22T04:51:48;2.90;82.00
13458;DHT22;6801;53.018;11.560;2023-11-22T04:54:15;2.80;82.00
13458;DHT22;6801;53.018;11.560;2023-11-22T04:56:42;2.90;82.00
13458;DHT22;6801;53.018;11.560;2023-11-22T04:59:11;2.80;82.10
13458;DHT22;6801;53.018;11.560;2023-11-22T05:01:38;2.80;81.90
13458;DHT22;6801;53.018;11.560;2023-11-22T05:04:05;2.70;81.70
13458;DHT22;6801;53.018;11.560;2023-11-22T05:06:32;2.70;81.80
13458;DHT22;6801;53.018;11.560;2023-11-22T05:08:59;2.70;82.00
13458;DHT22;6801;53.018;11.560;2023-11-22T05:11:26;2.70;82.10
13458;DHT22;6801;53.018;11.560;2023-11-22T05:13:53;2.70;82.20
13458;DHT22;6801;53.018;11.560;2023-11-22T05:16:22;2.70;82.20
13458;DHT22;6801;53.018;11.560;2023-11-22T05:18:49;2.70;82.20
13458;DHT22;6801;53.018;11.560;2023-11-22T05:21:16;2.70;82.10
13458;DHT22;6801;53.018;11.560;2023-11-22T05:23:43;2.70;82.10
13458;DHT22;6801;53.018;11.560;2023-11-22T05:26:11;2.70;82.10
13458;DHT22;6801;53.018;11.560;2023-11-22T05:28:38;2.60;82.10
13458;DHT22;6801;53.018;11.560;2023-11-22T05:31:05;2.60;82.10
13458;DHT22;6801;53.018;11.560;2023-11-22T05:33:33;2.60;82.10
13458;DHT22;6801;53.018;11.560;2023-11-22T05:36:00;2.60;82.10
13458;DHT22;6801;53.018;11.560;2023-11-22T05:38:27;2.60;82.10
13458;DHT22;6801;53.018;11.560;2023-11-22T05:40:54;2.60;82.00
13458;DHT22;6801;53.018;11.560;2023-11-22T05:43:21;2.50;82.00
13458;DHT22;6801;53.018;11.560;2023-11-22T05:45:52;2.50;82.00
13458;DHT22;6801;53.018;11.560;2023-11-22T05:48:19;2.50;82.00
13458;DHT22;6801;53.018;11.560;2023-11-22T05:50:48;2.50;81.90
13458;DHT22;6801;53.018;11.560;2023-11-22T05:53:15;2.50;82.00
13458;DHT22;6801;53.018;11.560;2023-11-22T05:55:45;2.40;82.10
13458;DHT22;6801;53.018;11.560;2023-11-22T05:58:13;2.50;82.10
13458;DHT22;6801;53.018;11.560;2023-11-22T06:00:42;2.40;82.10
13458;DHT22;6801;53.018;11.560;2023-11-22T06:03:09;2.40;82.10
13458;DHT22;6801;53.018;11.560;2023-11-22T06:05:36;2.40;82.10
13458;DHT22;6801;53.018;11.560;2023-11-22T06:08:05;2.40;82.10
13458;DHT22;6801;53.018;11.560;2023-11-22T06:10:32;2.40;82.00
13458;DHT22;6801;53.018;11.560;2023-11-22T06:12:59;2.30;82.00
13458;DHT22;6801;53.018;11.560;2023-11-22T06:15:26;2.30;81.90
13458;DHT22;6801;53.018;11.560;2023-11-22T06:17:53;2.30;81.90
13458;DHT22;6801;53.018;11.560;2023-11-22T06:20:20;2.30;81.80
13458;DHT22;6801;53.018;11.560;2023-11-22T06:22:49;2.20;81.60
13458;DHT22;6801;53.018;11.560;2023-11-22T06:25:18;2.20;81.40
13458;DHT22;6801;53.018;11.560;2023-11-22T06:27:45;2.10;81.10
13458;DHT22;6801;53.018;11.560;2023-11-22T06:30:12;2.10;80.90
13458;DHT22;6801;53.018;11.560;2023-11-22T06:32:40;2.00;80.90
13458;DHT22;6801;53.018;11.560;2023-11-22T06:35:09;2.00;81.00
13458;DHT22;6801;53.018;11.560;2023-11-22T06:37:37;2.00;81.00
13458;DHT22;6801;53.018;11.560;2023-11-22T06:40:05;2.00;81.00
13458;DHT22;6801;53.018;11.560;2023-11-22T06:42:33;2.00;81.30
13458;DHT22;6801;53.018;11.560;2023-11-22T06:45:00;2.00;81.50
13458;DHT22;6801;53.018;11.560;2023-11-22T06:47:27;2.00;81.60
13458;DHT22;6801;53.018;11.560;2023-11-22T06:49:54;2.00;81.70
13458;DHT22;6801;53.018;11.560;2023-11-22T06:52:21;2.00;81.70
13458;DHT22;6801;53.018;11.560;2023-11-22T06:54:48;2.00;81.70
13458;DHT22;6801;53.018;11.560;2023-11-22T06:57:15;2.00;81.80
13458;DHT22;6801;53.018;11.560;2023-11-22T06:59:44;2.00;81.80
13458;DHT22;6801;53.018;11.560;2023-11-22T07:02:11;2.00;81.80
13458;DHT22;6801;53.018;11.560;2023-11-22T07:04:40;2.00;81.80
13458;DHT22;6801;53.018;11.560;2023-11-22T07:07:07;2.00;81.80
13458;DHT22;6801;53.018;11.560;2023-11-22T07:09:36;1.90;81.80
13458;DHT22;6801;53.018;11.560;2023-11-22T07:12:05;1.90;81.80
13458;DHT22;6801;53.018;11.560;2023-11-22T07:14:33;1.90;81.80
13458;DHT22;6801;53.018;11.560;2023-11-22T07:17:02;1.90;81.80
13458;DHT22;6801;53.018;11.560;2023-11-22T07:19:32;1.90;81.70
13458;DHT22;6801;53.018;11.560;2023-11-22T07:22:03;1.90;81.80
13458;DHT22;6801;53.018;11.560;2023-11-22T07:24:41;1.90;81.80
13458;DHT22;6801;53.018;11.560;2023-11-22T07:27:10;1.90;81.80
13458;DHT22;6801;53.018;11.560;2023-11-22T07:29:38;1.90;81.70
13458;DHT22;6801;53.018;11.560;2023-11-22T07:32:08;1.90;81.70
13458;DHT22;6801;53.018;11.560;2023-11-22T07:34:36;1.90;81.70
13458;DHT22;6801;53.018;11.560;2023-11-22T07:37:03;1.90;81.80
13458;DHT22;6801;53.018;11.560;2023-11-22T07:39:30;1.90;81.90
13458;DHT22;6801;53.018;11.560;2023-11-22T07:42:01;1.90;81.90
13458;DHT22;6801;53.018;11.560;2023-11-22T07:44:28;1.90;81.90
13458;DHT22;6801;53.018;11.560;2023-11-22T07:46:58;2.00;81.90
13458;DHT22;6801;53.018;11.560;2023-11-22T07:49:27;2.00;81.90
13458;DHT22;6801;53.018;11.560;2023-11-22T07:51:56;2.00;82.00
13458;DHT22;6801;53.018;11.560;2023-11-22T07:54:23;2.00;81.90
13458;DHT22;6801;53.018;11.560;2023-11-22T07:56:51;2.10;81.90
13458;DHT22;6801;53.018;11.560;2023-11-22T07:59:18;2.00;81.80
13458;DHT22;6801;53.018;11.560;2023-11-22T08:01:46;2.00;81.80
13458;DHT22;6801;53.018;11.560;2023-11-22T08:04:14;2.10;81.90
13458;DHT22;6801;53.018;11.560;2023-11-22T08:06:43;2.10;81.90
13458;DHT22;6801;53.018;11.560;2023-11-22T08:09:11;2.10;81.90
13458;DHT22;6801;53.018;11.560;2023-11-22T08:11:39;2.10;81.90
13458;DHT22;6801;53.018;11.560;2023-11-22T08:14:06;2.10;81.80
13458;DHT22;6801;53.018;11.560;2023-11-22T08:16:34;2.10;81.90
13458;DHT22;6801;53.018;11.560;2023-11-22T08:19:04;2.10;81.90
13458;DHT22;6801;53.018;11.560;2023-11-22T08:21:33;2.20;81.90
13458;DHT22;6801;53.018;11.560;2023-11-22T08:24:01;2.20;82.00
13458;DHT22;6801;53.018;11.560;2023-11-22T08:26:29;2.20;82.00
13458;DHT22;6801;53.018;11.560;2023-11-22T08:28:56;2.20;82.00
13458;DHT22;6801;53.018;11.560;2023-11-22T08:31:23;2.30;82.00
13458;DHT22;6801;53.018;11.560;2023-11-22T08:33:50;2.30;82.00
13458;DHT22;6801;53.018;11.560;2023-11-22T08:36:17;2.30;82.10
13458;DHT22;6801;53.018;11.560;2023-11-22T08:38:44;2.30;82.10
13458;DHT22;6801;53.018;11.560;2023-11-22T08:41:13;2.30;82.10
13458;DHT22;6801;53.018;11.560;2023-11-22T08:43:40;2.30;82.20
13458;DHT22;6801;53.018;11.560;2023-11-22T08:46:07;2.40;82.20
13458;DHT22;6801;53.018;11.560;2023-11-22T08:48:34;2.40;82.30
13458;DHT22;6801;53.018;11.560;2023-11-22T08:51:03;2.40;82.30
13458;DHT22;6801;53.018;11.560;2023-11-22T08:53:30;2.40;82.30
13458;DHT22;6801;53.018;11.560;2023-11-22T08:55:57;2.40;82.30
13458;DHT22;6801;53.018;11.560;2023-11-22T08:58:26;2.50;82.40
13458;DHT22;6801;53.018;11.560;2023-11-22T09:00:53;2.50;82.30
13458;DHT22;6801;53.018;11.560;2023-11-22T09:03:23;2.50;82.30
13458;DHT22;6801;53.018;11.560;2023-11-22T09:05:50;2.50;82.40
13458;DHT22;6801;53.018;11.560;2023-11-22T09:08:18;2.50;82.30
13458;DHT22;6801;53.018;11.560;2023-11-22T09:10:46;2.50;82.40
13458;DHT22;6801;53.018;11.560;2023-11-22T09:13:13;2.50;82.50
13458;DHT22;6801;53.018;11.560;2023-11-22T09:15:43;2.50;82.60
13458;DHT22;6801;53.018;11.560;2023-11-22T09:18:10;2.60;82.60
13458;DHT22;6801;53.018;11.560;2023-11-22T09:20:38;2.60;82.60
13458;DHT22;6801;53.018;11.560;2023-11-22T09:23:05;2.60;82.60
13458;DHT22;6801;53.018;11.560;2023-11-22T09:25:32;2.60;82.50
13458;DHT22;6801;53.018;11.560;2023-11-22T09:28:01;2.70;82.50
13458;DHT22;6801;53.018;11.560;2023-11-22T09:30:31;2.70;82.40
13458;DHT22;6801;53.018;11.560;2023-11-22T09:33:05;2.70;82.40
13458;DHT22;6801;53.018;11.560;2023-11-22T09:35:34;2.70;82.40
13458;DHT22;6801;53.018;11.560;2023-11-22T09:38:02;2.70;82.30
13458;DHT22;6801;53.018;11.560;2023-11-22T09:40:30;2.80;82.30
13458;DHT22;6801;53.018;11.560;2023-11-22T09:42:57;2.70;82.20
13458;DHT22;6801;53.018;11.560;2023-11-22T09:45:26;2.80;82.20
13458;DHT22;6801;53.018;11.560;2023-11-22T09:47:53;2.80;82.20
13458;DHT22;6801;53.018;11.560;2023-11-22T09:50:29;2.80;82.20
13458;DHT22;6801;53.018;11.560;2023-11-22T09:53:01;2.90;82.10
13458;DHT22;6801;53.018;11.560;2023-11-22T09:55:30;2.80;82.10
13458;DHT22;6801;53.018;11.560;2023-11-22T09:57:58;2.90;82.10
13458;DHT22;6801;53.018;11.560;2023-11-22T10:00:27;2.90;82.00
13458;DHT22;6801;53.018;11.560;2023-11-22T10:02:56;2.90;82.00
13458;DHT22;6801;53.018;11.560;2023-11-22T10:05:24;2.90;81.90
13458;DHT22;6801;53.018;11.560;2023-11-22T10:07:54;2.90;81.90
13458;DHT22;6801;53.018;11.560;2023-11-22T10:10:22;3.00;81.90
13458;DHT22;6801;53.018;11.560;2023-11-22T10:12:54;2.90;81.80
13458;DHT22;6801;53.018;11.560;2023-11-22T10:15:23;3.00;81.80
13458;DHT22;6801;53.018;11.560;2023-11-22T10:17:54;3.00;81.80
13458;DHT22;6801;53.018;11.560;2023-11-22T10:20:25;3.00;81.80
13458;DHT22;6801;53.018;11.560;2023-11-22T10:22:54;3.00;81.80
13458;DHT22;6801;53.018;11.560;2023-11-22T10:25:21;3.00;81.80
13458;DHT22;6801;53.018;11.560;2023-11-22T10:27:48;3.00;81.80
13458;DHT22;6801;53.018;11.560;2023-11-22T10:30:17;3.10;81.80
13458;DHT22;6801;53.018;11.560;2023-11-22T10:32:45;3.10;81.80
13458;DHT22;6801;53.018;11.560;2023-11-22T10:35:12;3.10;81.80
13458;DHT22;6801;53.018;11.560;2023-11-22T10:37:42;3.10;81.70
13458;DHT22;6801;53.018;11.560;2023-11-22T10:40:13;3.10;81.60
13458;DHT22;6801;53.018;11.560;2023-11-22T10:42:41;3.20;81.70
13458;DHT22;6801;53.018;11.560;2023-11-22T10:45:09;3.20;81.70
13458;DHT22;6801;53.018;11.560;2023-11-22T10:47:37;3.20;81.60
13458;DHT22;6801;53.018;11.560;2023-11-22T10:50:08;3.20;81.50
13458;DHT22;6801;53.018;11.560;2023-11-22T10:52:36;3.20;81.60
13458;DHT22;6801;53.018;11.560;2023-11-22T10:55:06;3.30;81.60
13458;DHT22;6801;53.018;11.560;2023-11-22T10:57:39;3.30;81.50
13458;DHT22;6801;53.018;11.560;2023-11-22T11:00:09;3.30;81.50
13458;DHT22;6801;53.018;11.560;2023-11-22T11:02:41;3.30;81.40
13458;DHT22;6801;53.018;11.560;2023-11-22T11:05:15;3.40;81.40
13458;DHT22;6801;53.018;11.560;2023-11-22T11:07:49;3.40;81.30
13458;DHT22;6801;53.018;11.560;2023-11-22T11:10:21;3.50;81.30
13458;DHT22;6801;53.018;11.560;2023-11-22T11:12:49;3.40;81.30
13458;DHT22;6801;53.018;11.560;2023-11-22T11:15:17;3.40;81.20
13458;DHT22;6801;53.018;11.560;2023-11-22T11:17:44;3.50;81.10
13458;DHT22;6801;53.018;11.560;2023-11-22T11:20:15;3.50;81.10
13458;DHT22;6801;53.018;11.560;2023-11-22T11:22:43;3.50;81.00
13458;DHT22;6801;53.018;11.560;2023-11-22T11:25:14;3.60;81.00
13458;DHT22;6801;53.018;11.560;2023-11-22T11:27:43;3.50;81.00
13458;DHT22;6801;53.018;11.560;2023-11-22T11:30:45;3.60;80.90
13458;DHT22;6801;53.018;11.560;2023-11-22T11:33:13;3.60;80.90
13458;DHT22;6801;53.018;11.560;2023-11-22T11:35:44;3.70;80.90
13458;DHT22;6801;53.018;11.560;2023-11-22T11:38:13;3.70;80.80
13458;DHT22;6801;53.018;11.560;2023-11-22T11:40:41;3.70;80.80
13458;DHT22;6801;53.018;11.560;2023-11-22T11:43:10;3.70;80.70
13458;DHT22;6801;53.018;11.560;2023-11-22T11:45:39;3.80;80.70
13458;DHT22;6801;53.018;11.560;2023-11-22T11:48:12;3.80;80.60
13458;DHT22;6801;53.018;11.560;2023-11-22T11:50:39;3.80;80.60
13458;DHT22;6801;53.018;11.560;2023-11-22T11:53:06;3.80;80.40
13458;DHT22;6801;53.018;11.560;2023-11-22T11:55:34;3.90;80.30
13458;DHT22;6801;53.018;11.560;2023-11-22T11:58:04;3.90;80.30
13458;DHT22;6801;53.018;11.560;2023-11-22T12:00:36;3.90;80.30
13458;DHT22;6801;53.018;11.560;2023-11-22T12:03:06;3.90;80.20
13458;DHT22;6801;53.018;11.560;2023-11-22T12:05:36;4.00;80.10
13458;DHT22;6801;53.018;11.560;2023-11-22T12:08:03;3.90;80.00
13458;DHT22;6801;53.018;11.560;2023-11-22T12:10:30;3.90;79.90
13458;DHT22;6801;53.018;11.560;2023-11-22T12:12:57;4.00;79.70
13458;DHT22;6801;53.018;11.560;2023-11-22T12:15:25;4.00;79.60
13458;DHT22;6801;53.018;11.560;2023-11-22T12:17:53;4.00;79.60
13458;DHT22;6801;53.018;11.560;2023-11-22T12:20:23;4.00;79.40
13458;DHT22;6801;53.018;11.560;2023-11-22T12:22:52;4.00;79.30
13458;DHT22;6801;53.018;11.560;2023-11-22T12:25:19;4.00;79.50
13458;DHT22;6801;53.018;11.560;2023-11-22T12:27:47;4.00;79.40
13458;DHT22;6801;53.018;11.560;2023-11-22T12:30:31;4.00;79.40
13458;DHT22;6801;53.018;11.560;2023-11-22T12:33:04;4.00;79.30
13458;DHT22;6801;53.018;11.560;2023-11-22T12:35:33;4.00;79.40
13458;DHT22;6801;53.018;11.560;2023-11-22T12:38:01;4.00;79.50
13458;DHT22;6801;53.018;11.560;2023-11-22T12:40:29;4.00;79.50
13458;DHT22;6801;53.018;11.560;2023-11-22T12:42:59;4.00;79.50
13458;DHT22;6801;53.018;11.560;2023-11-22T12:45:29;4.00;79.40
13458;DHT22;6801;53.018;11.560;2023-11-22T12:47:59;4.00;79.30
13458;DHT22;6801;53.018;11.560;2023-11-22T12:50:32;4.00;79.30
13458;DHT22;6801;53.018;11.560;2023-11-22T12:53:08;4.00;79.50
13458;DHT22;6801;53.018;11.560;2023-11-22T12:55:37;4.00;79.50
13458;DHT22;6801;53.018;11.560;2023-11-22T12:58:04;4.00;79.40
13458;DHT22;6801;53.018;11.560;2023-11-22T13:00:31;4.00;79.30
13458;DHT22;6801;53.018;11.560;2023-11-22T13:02:58;4.00;79.30
13458;DHT22;6801;53.018;11.560;2023-11-22T13:05:25;4.00;79.10
13458;DHT22;6801;53.018;11.560;2023-11-22T13:07:54;4.00;78.80
13458;DHT22;6801;53.018;11.560;2023-11-22T13:10:21;4.00;78.90
13458;DHT22;6801;53.018;11.560;2023-11-22T13:12:52;4.00;78.90
13458;DHT22;6801;53.018;11.560;2023-11-22T13:15:20;4.00;78.60
13458;DHT22;6801;53.018;11.560;2023-11-22T13:17:50;4.00;78.30
13458;DHT22;6801;53.018;11.560;2023-11-22T13:20:22;4.00;78.10
13458;DHT22;6801;53.018;11.560;2023-11-22T13:22:49;3.90;77.90
13458;DHT22;6801;53.018;11.560;2023-11-22T13:25:18;4.00;77.80
13458;DHT22;6801;53.018;11.560;2023-11-22T13:27:46;3.90;77.70
13458;DHT22;6801;53.018;11.560;2023-11-22T13:30:14;3.90;77.50
13458;DHT22;6801;53.018;11.560;2023-11-22T13:32:43;3.90;77.60
13458;DHT22;6801;53.018;11.560;2023-11-22T13:35:10;3.90;77.70
13458;DHT22;6801;53.018;11.560;2023-11-22T13:37:44;3.90;77.60
13458;DHT22;6801;53.018;11.560;2023-11-22T13:40:12;3.90;77.70
13458;DHT22;6801;53.018;11.560;2023-11-22T13:42:42;3.90;77.90
13458;DHT22;6801;53.018;11.560;2023-11-22T13:45:11;3.90;78.00
13458;DHT22;6801;53.018;11.560;2023-11-22T13:47:42;3.90;77.90
13458;DHT22;6801;53.018;11.560;2023-11-22T13:50:10;3.90;78.00
13458;DHT22;6801;53.018;11.560;2023-11-22T13:52:40;3.90;78.20
13458;DHT22;6801;53.018;11.560;2023-11-22T13:55:08;3.80;78.10
13458;DHT22;6801;53.018;11.560;2023-11-22T13:57:36;3.80;78.00
13458;DHT22;6801;53.018;11.560;2023-11-22T14:00:07;3.80;77.80
13458;DHT22;6801;53.018;11.560;2023-11-22T14:02:38;3.80;77.90
13458;DHT22;6801;53.018;11.560;2023-11-22T14:05:06;3.80;77.90
13458;DHT22;6801;53.018;11.560;2023-11-22T14:07:35;3.80;78.00
13458;DHT22;6801;53.018;11.560;2023-11-22T14:10:03;3.80;78.20
13458;DHT22;6801;53.018;11.560;2023-11-22T14:12:32;3.80;78.00
13458;DHT22;6801;53.018;11.560;2023-11-22T14:14:59;3.80;78.00
13458;DHT22;6801;53.018;11.560;2023-11-22T14:17:28;3.80;77.90
13458;DHT22;6801;53.018;11.560;2023-11-22T14:19:55;3.80;78.30
13458;DHT22;6801;53.018;11.560;2023-11-22T14:22:22;3.80;78.40
13458;DHT22;6801;53.018;11.560;2023-11-22T14:24:50;3.80;78.20
13458;DHT22;6801;53.018;11.560;2023-11-22T14:27:17;3.70;78.30
13458;DHT22;6801;53.018;11.560;2023-11-22T14:29:45;3.80;78.50
13458;DHT22;6801;53.018;11.560;2023-11-22T14:32:14;3.80;78.70
13458;DHT22;6801;53.018;11.560;2023-11-22T14:34:43;3.80;78.70
13458;DHT22;6801;53.018;11.560;2023-11-22T14:37:10;3.80;78.50
13458;DHT22;6801;53.018;11.560;2023-11-22T14:39:40;3.70;78.30
13458;DHT22;6801;53.018;11.560;2023-11-22T14:42:08;3.70;78.20
13458;DHT22;6801;53.018;11.560;2023-11-22T14:44:37;3.70;78.20
13458;DHT22;6801;53.018;11.560;2023-11-22T14:47:04;3.70;78.10
13458;DHT22;6801;53.018;11.560;2023-11-22T14:49:38;3.70;78.20
13458;DHT22;6801;53.018;11.560;2023-11-22T14:52:06;3.70;78.20
13458;DHT22;6801;53.018;11.560;2023-11-22T14:54:35;3.70;78.10
13458;DHT22;6801;53.018;11.560;2023-11-22T14:57:02;3.70;78.20
13458;DHT22;6801;53.018;11.560;2023-11-22T14:59:32;3.60;77.90
13458;DHT22;6801;53.018;11.560;2023-11-22T15:01:59;3.70;78.10
13458;DHT22;6801;53.018;11.560;2023-11-22T15:04:27;3.60;78.10
13458;DHT22;6801;53.018;11.560;2023-11-22T15:06:55;3.60;78.20
13458;DHT22;6801;53.018;11.560;2023-11-22T15:09:23;3.60;78.30
13458;DHT22;6801;53.018;11.560;2023-11-22T15:11:52;3.60;78.30
13458;DHT22;6801;53.018;11.560;2023-11-22T15:14:20;3.60;78.30
13458;DHT22;6801;53.018;11.560;2023-11-22T15:16:48;3.60;78.40
13458;DHT22;6801;53.018;11.560;2023-11-22T15:19:15;3.60;78.40
13458;DHT22;6801;53.018;11.560;2023-11-22T15:21:42;3.60;78.30
13458;DHT22;6801;53.018;11.560;2023-11-22T15:24:09;3.50;78.30
13458;DHT22;6801;53.018;11.560;2023-11-22T15:26:38;3.50;78.00
13458;DHT22;6801;53.018;11.560;2023-11-22T15:29:05;3.50;78.10
13458;DHT22;6801;53.018;11.560;2023-11-22T15:31:33;3.40;78.10
13458;DHT22;6801;53.018;11.560;2023-11-22T15:34:00;3.40;78.00
13458;DHT22;6801;53.018;11.560;2023-11-22T15:36:28;3.40;78.00
13458;DHT22;6801;53.018;11.560;2023-11-22T15:38:55;3.40;78.20
13458;DHT22;6801;53.018;11.560;2023-11-22T15:41:22;3.40;78.30
13458;DHT22;6801;53.018;11.560;2023-11-22T15:43:50;3.40;78.40
13458;DHT22;6801;53.018;11.560;2023-11-22T15:46:17;3.40;78.30
13458;DHT22;6801;53.018;11.560;2023-11-22T15:48:49;3.30;78.20
13458;DHT22;6801;53.018;11.560;2023-11-22T15:51:16;3.30;78.20